Terminal Aerodrome Forecast
Issued by NWS Sioux Falls, SD

Home | Current Version | Previous Version | Graphics & Text | Print | Product List | Glossary Off
Versions: 1 2 3 4 5 6 7 8 9 10 11 12 13 14 15 16 17 18 19 20 21 22 23 24 25 26

000
FTUS43 KFSD 212322
TAFFSD
TAF
KFSD 212322Z 2200/2224 17006KT P6SM FEW040 BKN250
     FM220200 12009KT P6SM SCT040 BKN120
     FM220800 08005KT P6SM BKN040
     FM221000 06007KT P6SM OVC020
      TEMPO 2214/2216 OVC008
     FM221600 08007KT P6SM OVC010=

USA.gov is the U.S. government's official web portal to all federal, state and local government web resources and services.